Time;durP1;ratioP1;P1;durP2;ratioP2;P2;SDS_P1;SDS_P2;PMS_P1;PMS_P2;Temp;Humidity;BMP_temperature;BMP_pressure;BME280_temperature;BME280_humidity;BME280_pressure;Samples;Min_cycle;Max_cycle;Signal;HPM_P1;HPM_P2
2021/07/30 00:01:05;;;;;;;;;;;;;;;19.08;68.73;98547.13;4990537;28;19933;-62
2021/07/30 00:03:31;;;;;;;;;;;;;;;19.61;65.52;98543.09;4996400;28;20398;-62
2021/07/30 00:05:56;;;;;;;;;;;;;;;19.64;63.79;98545.44;4989882;28;19945;-63
2021/07/30 00:08:22;;;;;;;;;;;;;;;19.28;67.72;98548.25;4990307;28;19917;-63
2021/07/30 00:10:47;;;;;;;;;;;;;;;19.73;66.22;98538.72;4995300;28;20020;-62
2021/07/30 00:13:13;;;;;;;;;;;;;;;19.71;66.05;98545.84;4979979;28;19949;-62
2021/07/30 00:15:47;;;;;;;;;;;;;;;19.88;62.21;98538.47;4993025;28;19964;-62
2021/07/30 00:18:13;;;;;;;;;;;;;;;19.92;63.13;98545.13;4975618;28;19921;-61
2021/07/30 00:20:38;;;;;;;;;;;;;;;19.65;64.65;98536.66;4968660;28;19917;-60
2021/07/30 00:23:04;;;;;;;;;;;;;;;18.98;72.02;98536.53;4973560;28;19918;-61
2021/07/30 00:25:29;;;;;;;;;;;;;;;19.61;67.96;98540.47;4974897;28;19917;-61
2021/07/30 00:27:55;;;;;;;;;;;;;;;19.71;60.28;98539.78;4974844;28;20291;-61
2021/07/30 00:30:20;;;;;;;;;;;;;;;19.75;62.30;98536.81;4976498;28;19921;-62
2021/07/30 00:32:46;;;;;;;;;;;;;;;19.72;63.70;98536.22;4975399;28;19964;-62
2021/07/30 00:35:11;;;;;;;;;;;;;;;19.51;63.57;98534.25;4972930;28;19914;-62
2021/07/30 00:37:37;;;;;;;;;;;;;;;19.44;67.53;98530.47;4970971;28;19918;-62
2021/07/30 00:40:03;;;;;;;;;;;;;;;19.58;68.11;98532.84;4971396;28;19918;-62
2021/07/30 00:42:31;;;;;;;;;;;;;;;19.30;71.67;98533.31;4975858;28;19918;-63
2021/07/30 00:44:58;;;;;;;;;;;;;;;19.22;67.79;98537.28;4976165;28;19949;-61
2021/07/30 00:47:24;;;;;;;;;;;;;;;19.15;67.90;98528.25;4972494;28;19925;-61
2021/07/30 00:49:49;;;;;;;;;;;;;;;19.27;64.22;98536.13;4992307;28;20296;-63
2021/07/30 00:52:14;;;;;;;;;;;;;;;18.94;71.02;98529.88;4959207;28;20299;-61
2021/07/30 00:54:40;;;;;;;;;;;;;;;19.21;68.12;98527.81;4957208;28;19917;-63
2021/07/30 00:57:06;;;;;;;;;;;;;;;19.39;69.72;98530.00;4973661;28;19914;-61
2021/07/30 00:59:32;;;;;;;;;;;;;;;19.27;67.76;98528.28;4973913;28;20399;-62
2021/07/30 01:01:58;;;;;;;;;;;;;;;19.38;66.51;98529.13;4955615;28;19999;-61
2021/07/30 01:04:23;;;;;;;;;;;;;;;19.43;66.87;98526.16;4974203;28;19913;-63
2021/07/30 01:06:49;;;;;;;;;;;;;;;19.34;67.69;98537.31;4977768;28;20398;-62
2021/07/30 01:09:14;;;;;;;;;;;;;;;19.14;70.18;98542.28;4975603;28;19918;-61
2021/07/30 01:11:39;;;;;;;;;;;;;;;19.09;68.83;98539.19;4977053;28;20330;-61
2021/07/30 01:14:06;;;;;;;;;;;;;;;19.16;67.95;98537.78;4977392;28;20028;-61
2021/07/30 01:16:32;;;;;;;;;;;;;;;19.00;67.31;98532.84;4993069;28;20008;-61
2021/07/30 01:18:57;;;;;;;;;;;;;;;18.70;73.23;98535.91;5011555;28;19960;-63
2021/07/30 01:21:27;;;;;;;;;;;;;;;19.22;70.17;98541.69;4974323;28;20481;-62
2021/07/30 01:23:53;;;;;;;;;;;;;;;19.17;72.51;98542.03;4993488;28;19917;-61
2021/07/30 01:26:18;;;;;;;;;;;;;;;18.97;70.97;98537.47;4990391;28;19925;-60
2021/07/30 01:28:44;;;;;;;;;;;;;;;18.91;73.78;98540.53;4992309;28;19940;-61
2021/07/30 01:31:09;;;;;;;;;;;;;;;18.65;69.69;98540.63;4992883;28;19929;-61
2021/07/30 01:33:35;;;;;;;;;;;;;;;18.87;68.82;98544.31;4993059;28;19921;-62
2021/07/30 01:36:00;;;;;;;;;;;;;;;18.92;74.52;98543.03;4992036;28;20003;-62
2021/07/30 01:38:25;;;;;;;;;;;;;;;18.88;71.95;98545.97;4977758;28;19913;-62
2021/07/30 01:40:51;;;;;;;;;;;;;;;18.77;68.37;98534.56;4978559;28;19914;-61
2021/07/30 01:43:16;;;;;;;;;;;;;;;18.80;70.21;98534.31;4977628;28;20402;-63
2021/07/30 01:45:42;;;;;;;;;;;;;;;19.19;69.97;98534.09;4993097;28;19917;-63
2021/07/30 01:48:07;;;;;;;;;;;;;;;19.06;70.85;98542.00;4990538;28;19957;-61
2021/07/30 01:50:33;;;;;;;;;;;;;;;18.93;69.19;98536.88;4989290;28;19918;-62
2021/07/30 01:52:58;;;;;;;;;;;;;;;18.66;74.09;98531.88;4992882;28;19921;-62
2021/07/30 01:55:24;;;;;;;;;;;;;;;18.77;77.24;98528.47;4990237;28;20287;-62
2021/07/30 01:57:50;;;;;;;;;;;;;;;18.91;70.63;98527.50;4989708;28;20046;-62
2021/07/30 02:00:15;;;;;;;;;;;;;;;19.26;70.90;98513.59;5005485;28;20477;-63
2021/07/30 02:02:41;;;;;;;;;;;;;;;19.15;69.26;98522.22;4991478;28;19921;-63
2021/07/30 02:05:07;;;;;;;;;;;;;;;18.96;71.77;98515.75;4990764;28;19918;-62
2021/07/30 02:07:35;;;;;;;;;;;;;;;18.59;75.43;98518.44;4988983;28;19917;-62
2021/07/30 02:10:00;;;;;;;;;;;;;;;18.77;69.50;98513.69;4991485;28;19924;-62
2021/07/30 02:12:26;;;;;;;;;;;;;;;19.14;71.23;98505.72;4923952;28;1973322;-61
2021/07/30 02:14:51;;;;;;;;;;;;;;;18.93;74.45;98512.53;4994825;28;20423;-63
2021/07/30 02:17:17;;;;;;;;;;;;;;;18.88;78.33;98510.25;4993428;28;19914;-61
2021/07/30 02:19:42;;;;;;;;;;;;;;;18.63;79.27;98505.97;4994545;28;20286;-61
2021/07/30 02:22:08;;;;;;;;;;;;;;;18.50;72.79;98510.47;4994159;28;19921;-62
2021/07/30 02:24:34;;;;;;;;;;;;;;;18.75;78.04;98505.09;4989643;28;19918;-62
2021/07/30 02:26:59;;;;;;;;;;;;;;;18.38;78.23;98510.41;4989952;28;20327;-62
2021/07/30 02:29:25;;;;;;;;;;;;;;;18.55;78.16;98503.13;4994095;28;19913;-62
2021/07/30 02:31:51;;;;;;;;;;;;;;;18.62;81.77;98503.50;4993819;28;19913;-63
2021/07/30 02:34:16;;;;;;;;;;;;;;;18.61;75.17;98510.50;4990375;28;19940;-62
2021/07/30 02:36:42;;;;;;;;;;;;;;;18.33;78.76;98499.44;4993266;28;20288;-61
2021/07/30 02:39:08;;;;;;;;;;;;;;;18.58;82.17;98502.88;4994197;28;20317;-61
2021/07/30 02:41:33;;;;;;;;;;;;;;;19.00;77.47;98508.56;4993762;28;19960;-62
2021/07/30 02:43:58;;;;;;;;;;;;;;;19.13;76.57;98509.25;5011232;28;19924;-61
2021/07/30 02:46:24;;;;;;;;;;;;;;;18.59;79.59;98505.41;4993786;28;20291;-61
2021/07/30 02:48:50;;;;;;;;;;;;;;;18.91;76.48;98504.84;4991380;28;20000;-62
2021/07/30 02:51:15;;;;;;;;;;;;;;;18.41;76.43;98500.69;4991060;28;20032;-63
2021/07/30 02:53:41;;;;;;;;;;;;;;;18.82;76.76;98500.31;4993517;28;19953;-62
2021/07/30 02:56:06;;;;;;;;;;;;;;;19.11;77.17;98489.44;4992973;28;20375;-62
2021/07/30 02:58:32;;;;;;;;;;;;;;;19.03;73.14;98487.44;4989281;28;19914;-62
2021/07/30 03:00:59;;;;;;;;;;;;;;;18.77;73.66;98487.59;4993764;28;20393;-63
2021/07/30 03:03:25;;;;;;;;;;;;;;;19.35;68.26;98482.38;4995028;28;19918;-63
2021/07/30 03:05:50;;;;;;;;;;;;;;;18.87;74.20;98481.69;4997535;28;19940;-61
2021/07/30 03:08:16;;;;;;;;;;;;;;;18.50;77.85;98484.38;5013638;28;20336;-62
2021/07/30 03:10:41;;;;;;;;;;;;;;;18.64;73.70;98481.59;4996387;28;19933;-62
2021/07/30 03:13:07;;;;;;;;;;;;;;;18.49;76.53;98478.31;5012524;28;19925;-62
2021/07/30 03:15:32;;;;;;;;;;;;;;;18.76;78.13;98485.88;5000636;28;19925;-62
2021/07/30 03:17:58;;;;;;;;;;;;;;;18.68;73.55;98477.81;4996494;28;19945;-62
2021/07/30 03:20:23;;;;;;;;;;;;;;;18.69;76.50;98481.25;4994753;28;19921;-60
2021/07/30 03:22:49;;;;;;;;;;;;;;;18.57;79.57;98482.97;4992291;28;19921;-61
2021/07/30 03:25:14;;;;;;;;;;;;;;;18.15;79.74;98483.38;5009331;28;19913;-62
2021/07/30 03:27:42;;;;;;;;;;;;;;;18.01;82.10;98477.47;5005972;28;19918;-62
2021/07/30 03:30:07;;;;;;;;;;;;;;;18.33;81.55;98482.97;5006336;28;19929;-63
2021/07/30 03:32:33;;;;;;;;;;;;;;;18.57;78.81;98485.59;5012081;28;20271;-60
2021/07/30 03:34:58;;;;;;;;;;;;;;;18.48;79.44;98481.06;5005913;28;19917;-60
2021/07/30 03:37:23;;;;;;;;;;;;;;;18.53;79.48;98478.94;4994269;28;19929;-62
2021/07/30 03:39:49;;;;;;;;;;;;;;;18.65;78.10;98478.03;4994018;28;19913;-61
2021/07/30 03:42:14;;;;;;;;;;;;;;;18.46;79.71;98480.31;5012087;28;20672;-63
2021/07/30 03:44:39;;;;;;;;;;;;;;;18.83;76.42;98485.47;5010589;28;19960;-61
2021/07/30 03:47:05;;;;;;;;;;;;;;;18.46;79.73;98469.91;5006075;28;19925;-62
2021/07/30 03:49:30;;;;;;;;;;;;;;;18.60;77.37;98469.72;5009369;28;19914;-62
2021/07/30 03:51:56;;;;;;;;;;;;;;;18.38;78.22;98471.28;5012862;28;19925;-62
2021/07/30 03:54:21;;;;;;;;;;;;;;;18.00;82.53;98468.81;4992328;28;19913;-62
2021/07/30 03:56:47;;;;;;;;;;;;;;;18.61;78.48;98474.00;5010764;28;19918;-63
2021/07/30 03:59:12;;;;;;;;;;;;;;;18.56;78.98;98470.88;5011972;28;19914;-61
2021/07/30 04:01:40;;;;;;;;;;;;;;;18.45;81.21;98465.59;5011720;28;19930;-62
2021/07/30 04:04:05;;;;;;;;;;;;;;;18.97;76.73;98472.22;4988106;28;19922;-61
2021/07/30 04:06:31;;;;;;;;;;;;;;;19.04;75.53;98470.81;5012083;28;20411;-63
2021/07/30 04:08:56;;;;;;;;;;;;;;;19.28;74.82;98464.69;5004894;28;19917;-63
2021/07/30 04:11:21;;;;;;;;;;;;;;;18.59;77.65;98462.84;5003953;28;19923;-62
2021/07/30 04:13:47;;;;;;;;;;;;;;;18.64;79.97;98463.34;5011462;28;19943;-62
2021/07/30 04:16:13;;;;;;;;;;;;;;;18.63;78.17;98469.47;5005329;28;19917;-62
2021/07/30 04:18:38;;;;;;;;;;;;;;;18.58;79.84;98472.41;4996626;28;19918;-62
2021/07/30 04:21:07;;;;;;;;;;;;;;;18.91;78.16;98464.88;5006858;28;20436;-60
2021/07/30 04:23:33;;;;;;;;;;;;;;;18.85;77.22;98468.75;4986290;28;19922;-59
2021/07/30 04:25:59;;;;;;;;;;;;;;;18.74;79.88;98466.09;5007697;28;19920;-62
2021/07/30 04:28:24;;;;;;;;;;;;;;;18.31;80.05;98467.44;5010475;28;19917;-62
2021/07/30 04:30:49;;;;;;;;;;;;;;;18.50;80.71;98466.13;5006949;28;19917;-60
2021/07/30 04:33:15;;;;;;;;;;;;;;;18.58;79.47;98474.19;4989441;28;19913;-61
2021/07/30 04:35:40;;;;;;;;;;;;;;;18.91;79.28;98470.09;5009840;28;19963;-62
2021/07/30 04:38:06;;;;;;;;;;;;;;;18.54;83.00;98467.53;5001555;28;19952;-61
2021/07/30 04:40:31;;;;;;;;;;;;;;;18.82;81.24;98469.00;4994357;28;19921;-62
2021/07/30 04:42:57;;;;;;;;;;;;;;;18.59;77.80;98463.66;5003803;28;19925;-63
2021/07/30 04:45:22;;;;;;;;;;;;;;;18.49;82.14;98472.28;4997360;28;19913;-60
2021/07/30 04:47:48;;;;;;;;;;;;;;;19.20;79.39;98468.72;5011058;28;19924;-60
2021/07/30 04:50:13;;;;;;;;;;;;;;;18.86;79.17;98460.00;5010406;28;19917;-63
2021/07/30 04:52:38;;;;;;;;;;;;;;;19.29;76.44;98455.91;5005436;28;19917;-62
2021/07/30 04:55:04;;;;;;;;;;;;;;;19.80;68.14;98465.91;5004159;28;19940;-61
2021/07/30 04:57:29;;;;;;;;;;;;;;;19.65;68.91;98463.50;5005091;28;19952;-62
2021/07/30 04:59:55;;;;;;;;;;;;;;;19.53;71.64;98454.03;5002380;28;20267;-63
2021/07/30 05:02:20;;;;;;;;;;;;;;;18.87;76.46;98458.22;5005762;28;20322;-62
2021/07/30 05:04:46;;;;;;;;;;;;;;;18.94;79.62;98459.41;5006474;28;19913;-60
2021/07/30 05:07:11;;;;;;;;;;;;;;;18.54;78.68;98444.06;5005757;28;19968;-63
2021/07/30 05:09:36;;;;;;;;;;;;;;;18.21;82.53;98448.22;5008081;28;20382;-60
2021/07/30 05:12:01;;;;;;;;;;;;;;;18.97;78.05;98446.13;4980755;28;19980;-61
2021/07/30 05:14:27;;;;;;;;;;;;;;;18.61;81.24;98445.31;4989161;28;20002;-63
2021/07/30 05:16:52;;;;;;;;;;;;;;;18.50;81.03;98453.09;4980870;28;20318;-63
2021/07/30 05:19:18;;;;;;;;;;;;;;;18.91;78.44;98447.44;4980999;28;19933;-63
2021/07/30 05:21:43;;;;;;;;;;;;;;;18.83;77.49;98444.56;4981043;28;19918;-63
2021/07/30 05:24:09;;;;;;;;;;;;;;;18.87;76.65;98445.16;4980218;28;20519;-61
2021/07/30 05:26:35;;;;;;;;;;;;;;;18.39;80.51;98449.47;4979955;28;20453;-63
2021/07/30 05:29:00;;;;;;;;;;;;;;;18.60;82.72;98443.63;4980913;28;20397;-62
2021/07/30 05:31:26;;;;;;;;;;;;;;;18.68;80.04;98446.50;4987708;28;20330;-63
2021/07/30 05:33:51;;;;;;;;;;;;;;;19.02;78.88;98444.84;4989931;28;20449;-62
2021/07/30 05:36:17;;;;;;;;;;;;;;;18.85;79.27;98441.84;4984525;28;20298;-63
2021/07/30 05:38:43;;;;;;;;;;;;;;;19.34;74.82;98443.31;4986038;28;19928;-62
2021/07/30 05:41:11;;;;;;;;;;;;;;;19.28;76.12;98443.81;4986521;28;20001;-62
2021/07/30 05:43:37;;;;;;;;;;;;;;;18.81;77.70;98447.28;4966915;28;19917;-61
2021/07/30 05:46:03;;;;;;;;;;;;;;;19.00;78.09;98446.75;4973517;28;19919;-62
2021/07/30 05:48:28;;;;;;;;;;;;;;;19.41;75.85;98440.13;4987719;28;20661;-63
2021/07/30 05:50:53;;;;;;;;;;;;;;;19.51;75.89;98440.25;4970565;28;19921;-62
2021/07/30 05:53:19;;;;;;;;;;;;;;;18.93;78.50;98437.72;4980699;28;19925;-62
2021/07/30 05:55:44;;;;;;;;;;;;;;;19.08;78.81;98443.53;4980716;28;20411;-61
2021/07/30 05:58:10;;;;;;;;;;;;;;;19.36;76.62;98434.44;4980307;28;19928;-62
2021/07/30 06:00:35;;;;;;;;;;;;;;;19.50;75.65;98436.00;4980901;28;19949;-60
2021/07/30 06:03:00;;;;;;;;;;;;;;;19.81;74.28;98437.03;4985883;28;19918;-62
2021/07/30 06:05:26;;;;;;;;;;;;;;;20.15;72.81;98441.38;4987429;28;19921;-61
2021/07/30 06:07:51;;;;;;;;;;;;;;;20.14;74.37;98447.53;4983123;28;19918;-63
2021/07/30 06:10:17;;;;;;;;;;;;;;;19.65;73.44;98437.38;4983898;28;19914;-63
2021/07/30 06:12:42;;;;;;;;;;;;;;;19.72;74.80;98437.75;4992904;28;19996;-63
2021/07/30 06:15:08;;;;;;;;;;;;;;;20.00;74.17;98435.56;5000405;28;20012;-62
2021/07/30 06:17:33;;;;;;;;;;;;;;;19.90;74.99;98435.47;4999732;28;19993;-60
2021/07/30 06:19:59;;;;;;;;;;;;;;;20.06;75.88;98432.47;5001369;28;19918;-63
2021/07/30 06:22:24;;;;;;;;;;;;;;;20.44;73.09;98429.38;4999417;28;20931;-62
2021/07/30 06:24:50;;;;;;;;;;;;;;;20.38;73.09;98432.47;4979518;28;20489;-62
2021/07/30 06:27:16;;;;;;;;;;;;;;;20.62;72.25;98431.47;4999855;28;20291;-61
2021/07/30 06:29:42;;;;;;;;;;;;;;;21.20;68.90;98416.09;5006640;28;19956;-61
2021/07/30 06:32:07;;;;;;;;;;;;;;;20.70;69.06;98423.81;5005683;28;19980;-63
2021/07/30 06:34:33;;;;;;;;;;;;;;;20.18;72.20;98428.03;5004852;28;19917;-63
2021/07/30 06:36:59;;;;;;;;;;;;;;;20.33;72.54;98426.81;5005999;28;20367;-61
2021/07/30 06:39:24;;;;;;;;;;;;;;;20.68;70.81;98429.16;5008778;28;19932;-63
2021/07/30 06:41:50;;;;;;;;;;;;;;;20.48;71.26;98428.19;5010345;28;19921;-61
2021/07/30 06:44:15;;;;;;;;;;;;;;;21.13;67.85;98425.44;5009435;28;20276;-63
2021/07/30 06:46:41;;;;;;;;;;;;;;;21.46;66.88;98426.16;5007788;28;20348;-62
2021/07/30 06:49:06;;;;;;;;;;;;;;;21.58;66.91;98430.38;5005394;28;19939;-62
2021/07/30 06:51:31;;;;;;;;;;;;;;;22.07;64.61;98428.66;5011184;28;19918;-62
2021/07/30 06:53:57;;;;;;;;;;;;;;;21.92;62.46;98432.66;5008569;28;19917;-62
2021/07/30 06:56:22;;;;;;;;;;;;;;;22.00;62.09;98422.31;5003334;28;19965;-63
2021/07/30 06:58:47;;;;;;;;;;;;;;;22.31;62.15;98422.25;5003518;28;19917;-62
2021/07/30 07:01:13;;;;;;;;;;;;;;;22.39;58.97;98419.75;4996292;28;19951;-62
2021/07/30 07:03:38;;;;;;;;;;;;;;;22.81;59.50;98424.69;5001294;28;19921;-63
2021/07/30 07:06:03;;;;;;;;;;;;;;;22.29;60.70;98424.19;4985648;28;19914;-62
2021/07/30 07:08:29;;;;;;;;;;;;;;;22.43;59.75;98426.38;5005309;28;19936;-63
2021/07/30 07:10:54;;;;;;;;;;;;;;;22.49;60.22;98430.28;5004905;28;20020;-64
2021/07/30 07:13:20;;;;;;;;;;;;;;;22.86;56.88;98422.47;4998281;28;19984;-63
2021/07/30 07:15:46;;;;;;;;;;;;;;;23.23;58.86;98426.97;5005513;28;19913;-62
2021/07/30 07:18:11;;;;;;;;;;;;;;;21.62;64.60;98431.75;5005642;28;19917;-61
2021/07/30 07:20:37;;;;;;;;;;;;;;;22.23;62.57;98427.34;5005651;28;19924;-63
2021/07/30 07:23:02;;;;;;;;;;;;;;;23.69;56.56;98425.25;5004968;28;20021;-63
2021/07/30 07:25:28;;;;;;;;;;;;;;;24.03;56.23;98422.03;5002451;28;19917;-62
2021/07/30 07:27:53;;;;;;;;;;;;;;;23.48;53.19;98422.03;5009589;28;19919;-63
2021/07/30 07:30:19;;;;;;;;;;;;;;;22.67;54.51;98433.00;5007348;28;20381;-62
2021/07/30 07:32:44;;;;;;;;;;;;;;;22.70;59.36;98424.84;5011282;28;19913;-61
2021/07/30 07:35:10;;;;;;;;;;;;;;;23.46;58.05;98431.84;5003941;28;19921;-62
2021/07/30 07:37:35;;;;;;;;;;;;;;;23.82;54.10;98424.13;5000884;28;19917;-63
2021/07/30 07:40:01;;;;;;;;;;;;;;;24.30;52.03;98423.78;4989836;28;19959;-64
2021/07/30 07:42:26;;;;;;;;;;;;;;;24.12;50.80;98420.31;5007121;28;20040;-64
2021/07/30 07:44:51;;;;;;;;;;;;;;;25.01;50.19;98407.06;5010714;28;19995;-64
2021/07/30 07:47:17;;;;;;;;;;;;;;;24.26;52.55;98418.97;5012089;28;20414;-63
2021/07/30 07:49:42;;;;;;;;;;;;;;;23.66;53.90;98407.13;4989491;28;19967;-63
2021/07/30 07:52:08;;;;;;;;;;;;;;;23.85;51.73;98415.91;5001919;28;19913;-63
2021/07/30 07:54:33;;;;;;;;;;;;;;;23.36;51.48;98405.63;5006061;28;19975;-63
2021/07/30 07:57:01;;;;;;;;;;;;;;;23.90;52.03;98400.50;4991606;28;19914;-64
2021/07/30 07:59:27;;;;;;;;;;;;;;;24.81;49.12;98401.19;5007164;28;19913;-62
2021/07/30 08:01:53;;;;;;;;;;;;;;;24.74;51.10;98396.66;5005565;28;20406;-64
2021/07/30 08:04:18;;;;;;;;;;;;;;;24.72;48.63;98401.25;5006709;28;19965;-63
2021/07/30 08:06:43;;;;;;;;;;;;;;;24.41;48.10;98401.66;5001399;28;19917;-62
2021/07/30 08:09:09;;;;;;;;;;;;;;;24.89;49.37;98395.13;5002217;28;19972;-61
2021/07/30 08:11:35;;;;;;;;;;;;;;;25.34;46.52;98395.88;5000970;28;20035;-60
2021/07/30 08:14:00;;;;;;;;;;;;;;;25.51;45.31;98407.34;5005820;28;19929;-64
2021/07/30 08:16:26;;;;;;;;;;;;;;;24.77;44.34;98402.47;5001656;28;20701;-63
2021/07/30 08:18:51;;;;;;;;;;;;;;;24.52;47.34;98400.63;5002083;28;20027;-63
2021/07/30 08:21:17;;;;;;;;;;;;;;;25.04;46.29;98404.13;5000559;28;19914;-63
2021/07/30 08:23:42;;;;;;;;;;;;;;;24.71;46.96;98394.34;5002860;28;19928;-62
2021/07/30 08:26:07;;;;;;;;;;;;;;;24.57;45.20;98399.19;5003783;28;19923;-63
2021/07/30 08:28:33;;;;;;;;;;;;;;;24.96;44.36;98397.97;5004006;28;19924;-61
2021/07/30 08:30:58;;;;;;;;;;;;;;;25.01;47.38;98391.25;5006222;28;19914;-63
2021/07/30 08:33:24;;;;;;;;;;;;;;;25.98;44.71;98385.72;5008651;28;19975;-63
2021/07/30 08:35:49;;;;;;;;;;;;;;;26.16;44.67;98390.88;5007664;28;19924;-62
2021/07/30 08:38:14;;;;;;;;;;;;;;;26.75;44.55;98390.72;5003211;28;19925;-62
2021/07/30 08:40:40;;;;;;;;;;;;;;;26.54;43.52;98384.13;5001357;28;19917;-62
2021/07/30 08:43:05;;;;;;;;;;;;;;;26.54;43.30;98393.88;4991121;28;20480;-63
2021/07/30 08:45:31;;;;;;;;;;;;;;;26.24;42.47;98382.97;4998346;28;19918;-63
2021/07/30 08:47:56;;;;;;;;;;;;;;;27.57;42.00;98391.34;5000512;28;19914;-63
2021/07/30 08:50:21;;;;;;;;;;;;;;;26.72;41.90;98386.59;4992460;28;19936;-62
2021/07/30 08:52:49;;;;;;;;;;;;;;;26.73;42.14;98398.00;4994804;28;19960;-62
2021/07/30 08:55:16;;;;;;;;;;;;;;;25.48;45.06;98395.31;4987186;28;19924;-63
2021/07/30 08:57:42;;;;;;;;;;;;;;;27.49;42.95;98389.56;5001302;28;19921;-61
2021/07/30 09:00:08;;;;;;;;;;;;;;;27.50;39.96;98385.91;4983421;28;19918;-62
2021/07/30 09:02:34;;;;;;;;;;;;;;;27.89;39.88;98387.72;5000739;28;19996;-63
2021/07/30 09:05:03;;;;;;;;;;;;;;;26.81;40.80;98384.78;4983824;28;20055;-64
2021/07/30 09:07:40;;;;;;;;;;;;;;;27.48;38.12;98380.00;4980947;28;20351;-61
2021/07/30 09:10:06;;;;;;;;;;;;;;;27.78;39.08;98372.22;5000445;28;20310;-62
2021/07/30 09:12:31;;;;;;;;;;;;;;;28.48;38.17;98373.09;5001630;28;19929;-63
2021/07/30 09:14:56;;;;;;;;;;;;;;;27.72;36.68;98375.56;4985286;28;19922;-63
2021/07/30 09:17:37;;;;;;;;;;;;;;;28.07;39.22;98370.72;5003055;28;20048;-63
2021/07/30 09:20:03;;;;;;;;;;;;;;;27.52;38.27;98375.16;4984385;28;19924;-62
2021/07/30 09:22:28;;;;;;;;;;;;;;;27.99;38.02;98374.28;5002365;28;19921;-61
2021/07/30 09:25:00;;;;;;;;;;;;;;;29.15;37.54;98369.63;5002235;28;19918;-63
2021/07/30 09:27:25;;;;;;;;;;;;;;;29.09;38.57;98367.72;5001863;28;19929;-61
2021/07/30 09:29:53;;;;;;;;;;;;;;;29.12;37.44;98362.84;4984232;28;19913;-62
2021/07/30 09:32:19;;;;;;;;;;;;;;;29.51;38.13;98352.94;4985608;28;19921;-62
2021/07/30 09:34:45;;;;;;;;;;;;;;;29.40;35.70;98363.03;5004525;28;19966;-63
2021/07/30 09:37:12;;;;;;;;;;;;;;;27.42;38.57;98367.44;5004123;28;20000;-63
2021/07/30 09:39:39;;;;;;;;;;;;;;;26.92;40.37;98355.38;5003954;28;20516;-61
2021/07/30 09:42:05;;;;;;;;;;;;;;;28.20;38.50;98362.22;5004117;28;19936;-63
2021/07/30 09:44:31;;;;;;;;;;;;;;;27.04;39.64;98359.28;5003119;28;20406;-61
2021/07/30 09:47:02;;;;;;;;;;;;;;;25.73;42.67;98354.00;5003455;28;19929;-62
2021/07/30 09:49:45;;;;;;;;;;;;;;;29.01;40.61;98352.66;5005476;28;20000;-62
2021/07/30 09:52:16;;;;;;;;;;;;;;;28.91;40.47;98347.66;5003854;28;20035;-61
2021/07/30 09:54:45;;;;;;;;;;;;;;;29.24;38.36;98331.41;5004339;28;20645;-61
2021/07/30 09:57:11;;;;;;;;;;;;;;;30.12;37.73;98334.00;4993270;28;19925;-62
2021/07/30 09:59:39;;;;;;;;;;;;;;;29.46;35.63;98332.25;4984440;28;19924;-61
2021/07/30 10:02:05;;;;;;;;;;;;;;;29.57;37.03;98339.75;5001971;28;19961;-63
2021/07/30 10:04:31;;;;;;;;;;;;;;;28.10;36.92;98338.59;4997982;28;19925;-62
2021/07/30 10:06:57;;;;;;;;;;;;;;;28.49;37.44;98327.88;4981109;28;19944;-62
2021/07/30 10:09:34;;;;;;;;;;;;;;;27.94;37.46;98329.81;4982588;28;20456;-63
2021/07/30 10:12:00;;;;;;;;;;;;;;;28.97;36.57;98320.41;4976938;28;19929;-63
2021/07/30 10:14:29;;;;;;;;;;;;;;;29.28;37.25;98323.88;4992767;28;20801;-63
2021/07/30 10:17:04;;;;;;;;;;;;;;;28.35;35.94;98310.94;4981349;28;20536;-63
2021/07/30 10:19:30;;;;;;;;;;;;;;;28.98;37.03;98300.84;5000244;28;19972;-63
2021/07/30 10:21:59;;;;;;;;;;;;;;;29.87;37.02;98313.13;5000566;28;19917;-63
2021/07/30 10:24:25;;;;;;;;;;;;;;;29.85;34.18;98309.84;4983911;28;19926;-63
2021/07/30 10:26:50;;;;;;;;;;;;;;;31.35;34.63;98303.31;4976415;28;19932;-63
2021/07/30 10:29:16;;;;;;;;;;;;;;;29.37;35.10;98310.31;4980786;28;20410;-63
2021/07/30 10:31:51;;;;;;;;;;;;;;;29.02;39.67;98306.63;4996083;28;20019;-63
2021/07/30 10:34:16;;;;;;;;;;;;;;;28.33;37.55;98302.34;4997232;28;20276;-63
2021/07/30 10:36:42;;;;;;;;;;;;;;;29.47;35.58;98293.28;4998261;28;19921;-63
2021/07/30 10:39:11;;;;;;;;;;;;;;;27.97;36.55;98290.75;4998774;28;19936;-63
2021/07/30 10:41:38;;;;;;;;;;;;;;;29.03;36.01;98287.03;5000936;28;19917;-64
2021/07/30 10:44:05;;;;;;;;;;;;;;;30.72;32.93;98279.47;4974428;28;19937;-63
2021/07/30 10:46:30;;;;;;;;;;;;;;;30.32;35.00;98281.06;5001093;28;19956;-63
2021/07/30 10:48:56;;;;;;;;;;;;;;;31.43;34.08;98283.69;5002435;28;19954;-62
2021/07/30 10:51:21;;;;;;;;;;;;;;;30.55;33.60;98275.50;4992772;28;19941;-63
2021/07/30 10:53:47;;;;;;;;;;;;;;;29.81;37.10;98274.09;4985368;28;20481;-64
2021/07/30 10:56:22;;;;;;;;;;;;;;;30.59;37.01;98266.13;5007837;28;19972;-64
2021/07/30 10:58:52;;;;;;;;;;;;;;;29.91;34.70;98263.97;5002730;28;19918;-64
2021/07/30 11:01:21;;;;;;;;;;;;;;;29.27;35.16;98269.22;5005402;28;19968;-64
2021/07/30 11:03:52;;;;;;;;;;;;;;;31.92;34.33;98261.25;5006411;28;19926;-64
2021/07/30 11:06:18;;;;;;;;;;;;;;;30.36;36.38;98272.50;5003159;28;19925;-61
2021/07/30 11:09:02;;;;;;;;;;;;;;;29.26;35.90;98275.50;5005325;28;20579;-63
2021/07/30 11:11:43;;;;;;;;;;;;;;;31.40;34.32;98273.44;5009310;28;19944;-62
2021/07/30 11:14:11;;;;;;;;;;;;;;;29.32;34.21;98264.16;5005497;28;20269;-63
2021/07/30 11:16:36;;;;;;;;;;;;;;;29.44;36.34;98267.16;5002264;28;19917;-61
2021/07/30 11:19:02;;;;;;;;;;;;;;;28.62;36.20;98273.44;5003535;28;19917;-60
2021/07/30 11:21:29;;;;;;;;;;;;;;;31.73;37.18;98262.09;5005970;28;19917;-62
2021/07/30 11:23:54;;;;;;;;;;;;;;;31.75;32.60;98265.34;5009108;28;19917;-63
2021/07/30 11:26:20;;;;;;;;;;;;;;;30.98;34.75;98259.41;5008651;28;19925;-62
2021/07/30 11:28:52;;;;;;;;;;;;;;;30.16;34.92;98260.91;5005149;28;19917;-63
2021/07/30 11:31:20;;;;;;;;;;;;;;;31.14;35.02;98263.53;5005996;28;20446;-63
2021/07/30 11:33:52;;;;;;;;;;;;;;;29.92;34.73;98259.47;5002359;28;19923;-61
2021/07/30 11:36:18;;;;;;;;;;;;;;;31.33;34.43;98251.31;5004449;28;20338;-62
2021/07/30 11:38:50;;;;;;;;;;;;;;;32.08;31.26;98252.06;5003425;28;19945;-63
2021/07/30 11:41:15;;;;;;;;;;;;;;;32.09;32.21;98251.88;4978377;28;20039;-63
2021/07/30 11:44:00;;;;;;;;;;;;;;;32.30;34.93;98248.16;5009570;28;19968;-62
2021/07/30 11:46:25;;;;;;;;;;;;;;;32.85;32.06;98250.50;5013370;28;20295;-63
2021/07/30 11:48:50;;;;;;;;;;;;;;;32.78;30.58;98240.91;4978548;28;19918;-63
2021/07/30 11:51:16;;;;;;;;;;;;;;;31.78;34.57;98238.31;5001167;28;19921;-61
2021/07/30 11:53:42;;;;;;;;;;;;;;;31.98;34.65;98239.19;4984997;28;20537;-61
2021/07/30 11:56:07;;;;;;;;;;;;;;;31.78;36.09;98243.66;5001845;28;21223;-63
2021/07/30 11:58:33;;;;;;;;;;;;;;;32.17;32.27;98229.53;5003210;28;19917;-64
2021/07/30 12:01:10;;;;;;;;;;;;;;;32.70;33.72;98237.41;5002013;28;19928;-61
2021/07/30 12:03:36;;;;;;;;;;;;;;;32.17;33.38;98226.03;5002055;28;20462;-61
2021/07/30 12:06:01;;;;;;;;;;;;;;;31.92;32.92;98234.63;5009151;28;19921;-63
2021/07/30 12:08:26;;;;;;;;;;;;;;;32.38;32.30;98233.78;5008818;28;20011;-63
2021/07/30 12:10:52;;;;;;;;;;;;;;;33.18;31.74;98232.75;4993451;28;20347;-62
2021/07/30 12:13:17;;;;;;;;;;;;;;;32.82;36.31;98224.28;4978539;28;19925;-64
2021/07/30 12:15:43;;;;;;;;;;;;;;;32.36;32.02;98219.84;4965611;28;20322;-63
2021/07/30 12:18:08;;;;;;;;;;;;;;;32.58;34.54;98224.97;4965541;28;19919;-63
2021/07/30 12:20:34;;;;;;;;;;;;;;;30.97;33.32;98220.50;4968926;28;19925;-64
2021/07/30 12:23:04;;;;;;;;;;;;;;;30.37;33.93;98226.31;4979773;28;19932;-63
2021/07/30 12:25:33;;;;;;;;;;;;;;;29.63;35.66;98209.97;4982066;28;20015;-63
2021/07/30 12:28:05;;;;;;;;;;;;;;;29.29;36.84;98206.19;4989147;28;20382;-64
2021/07/30 12:30:31;;;;;;;;;;;;;;;30.38;33.96;98206.72;4982120;28;20298;-63
2021/07/30 12:32:56;;;;;;;;;;;;;;;31.38;34.11;98200.97;4993127;28;19914;-63
2021/07/30 12:35:34;;;;;;;;;;;;;;;31.78;33.27;98190.41;4991821;28;20287;-63
2021/07/30 12:38:01;;;;;;;;;;;;;;;31.75;34.01;98201.44;4982313;28;19922;-63
2021/07/30 12:40:26;;;;;;;;;;;;;;;31.40;33.15;98193.59;4985919;28;20356;-62
2021/07/30 12:43:07;;;;;;;;;;;;;;;30.98;33.88;98196.38;4991764;28;19918;-62